Time,TemperatureF,DewpointF,PressureIn,WindDirection,WindDirectionDegrees,WindSpeedMPH,WindSpeedGustMPH,Humidity,HourlyPrecipIn,Conditions,Clouds,dailyrainin,SoftwareType,DateUTC
2013-08-06 00:02:00,65.3,62.6,28.87,South,180,10.4,10.4,91,0.00,RA,,0.00,WeatherDisplay:10.37,2013-08-06 05:02:00,
2013-08-06 00:07:00,64.9,61.3,28.87,South,180,10.4,10.4,88,0.00,RA,,0.00,WeatherDisplay:10.37,2013-08-06 05:07:00,
2013-08-06 00:12:00,64.8,61.1,28.86,SW,225,8.1,8.1,88,0.00,CLR,,0.00,WeatherDisplay:10.37,2013-08-06 05:12:00,
2013-08-06 00:17:00,64.8,61.1,28.86,WNW,292,6.9,6.9,88,0.00,CLR,,0.00,WeatherDisplay:10.37,2013-08-06 05:17:00,
2013-08-06 00:22:00,64.6,60.9,28.86,SW,225,9.2,9.2,88,0.00,CLR,,0.00,WeatherDisplay:10.37,2013-08-06 05:22:00,
2013-08-06 00:27:00,64.8,60.8,28.86,SW,225,6.9,6.9,87,0.00,CLR,,0.00,WeatherDisplay:10.37,2013-08-06 05:27:00,
2013-08-06 00:32:00,64.6,60.6,28.86,South,180,8.1,8.1,87,0.00,CLR,,0.00,WeatherDisplay:10.37,2013-08-06 05:32:00,
2013-08-06 00:37:00,64.4,60.4,28.86,South,180,5.8,5.8,87,0.00,CLR,,0.00,WeatherDisplay:10.37,2013-08-06 05:37:00,
2013-08-06 00:42:00,64.2,59.9,28.86,SW,225,5.8,5.8,86,0.00,CLR,,0.00,WeatherDisplay:10.37,2013-08-06 05:42:00,
2013-08-06 00:47:00,64.6,60.3,28.86,South,180,8.1,8.1,86,0.00,CLR,,0.00,WeatherDisplay:10.37,2013-08-06 05:47:00,
2013-08-06 00:52:00,64.6,60.3,28.86,SW,225,8.1,8.1,86,0.00,CLR,,0.00,WeatherDisplay:10.37,2013-08-06 05:52:00,
2013-08-06 00:57:00,64.8,60.5,28.85,SW,225,8.1,8.1,86,0.00,CLR,,0.00,WeatherDisplay:10.37,2013-08-06 05:57:00,
2013-08-06 01:02:00,64.8,60.5,28.85,SW,225,9.2,9.2,86,0.00,CLR,,0.00,WeatherDisplay:10.37,2013-08-06 06:02:00,
2013-08-06 01:07:00,64.8,60.5,28.85,SW,225,9.2,9.2,86,0.00,CLR,,0.00,WeatherDisplay:10.37,2013-08-06 06:07:00,
2013-08-06 01:12:00,64.4,60.4,28.85,South,180,8.1,8.1,87,0.00,CLR,,0.00,WeatherDisplay:10.37,2013-08-06 06:12:00,
2013-08-06 01:17:00,64.4,60.8,28.84,SW,225,6.9,6.9,88,0.00,CLR,,0.00,WeatherDisplay:10.37,2013-08-06 06:17:00,
2013-08-06 01:22:00,64.6,61.6,28.85,WSW,248,6.9,6.9,90,0.00,CLR,,0.00,WeatherDisplay:10.37,2013-08-06 06:22:00,
2013-08-06 01:27:00,64.6,61.9,28.85,SW,225,4.6,5.4,91,0.00,CLR,,0.00,WeatherDisplay:10.37,2013-08-06 06:27:00,
2013-08-06 01:32:00,64.6,62.2,28.85,South,180,6.9,6.9,92,0.00,CLR,,0.00,WeatherDisplay:10.37,2013-08-06 06:32:00,
2013-08-06 01:37:00,64.8,62.7,28.85,South,180,5.8,5.8,93,0.00,CLR,,0.00,WeatherDisplay:10.37,2013-08-06 06:37:00,
2013-08-06 01:42:00,64.8,62.4,28.85,SW,225,8.1,8.1,92,0.00,CLR,,0.00,WeatherDisplay:10.37,2013-08-06 06:42:00,
2013-08-06 01:47:00,64.9,62.9,28.85,South,180,6.9,6.9,93,0.00,CLR,,0.00,WeatherDisplay:10.37,2013-08-06 06:47:00,
2013-08-06 01:52:00,64.9,62.9,28.85,SW,225,8.1,8.1,93,0.00,CLR,,0.00,WeatherDisplay:10.37,2013-08-06 06:52:00,
2013-08-06 01:57:00,64.9,62.9,28.85,SW,225,8.1,8.1,93,0.00,CLR,,0.00,WeatherDisplay:10.37,2013-08-06 06:57:00,
2013-08-06 02:02:00,64.9,62.9,28.85,South,180,8.1,8.1,93,0.00,CLR,,0.00,WeatherDisplay:10.37,2013-08-06 07:02:00,
2013-08-06 02:07:00,64.9,62.9,28.85,South,180,8.1,8.1,93,0.00,CLR,,0.00,WeatherDisplay:10.37,2013-08-06 07:07:00,
2013-08-06 02:12:00,64.9,62.9,28.85,South,180,5.8,5.8,93,0.00,CLR,,0.00,WeatherDisplay:10.37,2013-08-06 07:12:00,
2013-08-06 02:17:00,64.8,63.0,28.84,East,90,5.8,5.8,94,0.00,CLR,,0.00,WeatherDisplay:10.37,2013-08-06 07:17:00,
2013-08-06 02:22:00,64.9,63.2,28.85,SW,225,6.9,6.9,94,0.00,CLR,,0.00,WeatherDisplay:10.37,2013-08-06 07:22:00,
2013-08-06 02:27:00,64.9,63.2,28.84,South,180,8.1,8.1,94,0.00,CLR,,0.00,WeatherDisplay:10.37,2013-08-06 07:27:00,
2013-08-06 02:32:00,64.9,63.2,28.84,South,180,6.9,6.9,94,0.00,CLR,,0.00,WeatherDisplay:10.37,2013-08-06 07:32:00,
2013-08-06 02:37:00,64.9,63.2,28.84,South,180,5.8,5.8,94,0.00,CLR,,0.00,WeatherDisplay:10.37,2013-08-06 07:37:00,
2013-08-06 02:42:00,65.1,63.3,28.84,SW,225,5.8,5.8,94,0.00,CLR,,0.00,WeatherDisplay:10.37,2013-08-06 07:42:00,
2013-08-06 02:47:00,65.1,63.3,28.85,SW,225,5.8,5.8,94,0.00,CLR,,0.00,WeatherDisplay:10.37,2013-08-06 07:47:00,
2013-08-06 02:52:00,65.3,63.5,28.84,South,180,5.8,5.8,94,0.00,CLR,,0.00,WeatherDisplay:10.37,2013-08-06 07:52:00,
2013-08-06 02:57:00,65.1,63.3,28.84,SW,225,5.8,5.8,94,0.00,CLR,,0.00,WeatherDisplay:10.37,2013-08-06 07:57:00,
2013-08-06 03:02:00,65.3,63.5,28.85,SW,225,6.0,6.0,94,0.00,CLR,,0.00,WeatherDisplay:10.37,2013-08-06 08:02:00,
2013-08-06 03:07:00,65.3,63.5,28.85,SW,225,5.8,5.8,94,0.00,CLR,,0.00,WeatherDisplay:10.37,2013-08-06 08:07:00,
2013-08-06 03:12:00,65.3,63.5,28.84,SW,225,4.6,4.6,94,0.00,CLR,,0.00,WeatherDisplay:10.37,2013-08-06 08:12:00,
2013-08-06 03:17:00,65.5,63.7,28.84,South,180,8.1,8.1,94,0.00,CLR,,0.00,WeatherDisplay:10.37,2013-08-06 08:17:00,
2013-08-06 03:22:00,65.7,63.9,28.85,SW,225,4.6,4.6,94,0.00,CLR,,0.00,WeatherDisplay:10.37,2013-08-06 08:22:00,
2013-08-06 03:27:00,65.7,63.6,28.84,SW,225,3.5,3.5,93,0.00,CLR,,0.00,WeatherDisplay:10.37,2013-08-06 08:27:00,
2013-08-06 03:32:00,65.7,63.6,28.84,South,180,5.8,5.8,93,0.00,CLR,,0.00,WeatherDisplay:10.37,2013-08-06 08:32:00,
2013-08-06 03:37:00,65.7,63.6,28.84,SW,225,3.5,3.5,93,0.00,CLR,,0.00,WeatherDisplay:10.37,2013-08-06 08:37:00,
2013-08-06 03:42:00,65.8,63.8,28.84,South,180,5.8,5.8,93,0.00,CLR,,0.00,WeatherDisplay:10.37,2013-08-06 08:42:00,
2013-08-06 03:47:00,66.0,63.9,28.84,SW,225,3.5,3.5,93,0.00,CLR,,0.00,WeatherDisplay:10.37,2013-08-06 08:47:00,
2013-08-06 03:52:00,66.0,63.9,28.83,SW,225,3.5,3.5,93,0.00,CLR,,0.00,WeatherDisplay:10.37,2013-08-06 08:52:00,
2013-08-06 03:57:00,65.7,62.6,28.83,SW,225,5.8,5.8,90,0.00,CLR,,0.00,WeatherDisplay:10.37,2013-08-06 08:57:00,
2013-08-06 04:02:00,65.7,62.6,28.83,SW,225,5.8,5.8,90,0.00,CLR,,0.00,WeatherDisplay:10.37,2013-08-06 09:02:00,
2013-08-06 04:07:00,65.7,62.6,28.82,SW,225,5.8,5.8,90,0.00,CLR,,0.00,WeatherDisplay:10.37,2013-08-06 09:07:00,
2013-08-06 04:12:00,65.5,61.5,28.82,South,180,6.9,6.9,87,0.00,CLR,,0.00,WeatherDisplay:10.37,2013-08-06 09:12:00,
2013-08-06 04:17:00,65.5,62.5,28.82,NW,315,8.1,8.1,90,0.00,CLR,,0.00,WeatherDisplay:10.37,2013-08-06 09:17:00,
2013-08-06 04:22:00,65.3,63.2,28.82,South,180,5.8,5.8,93,0.00,CLR,,0.00,WeatherDisplay:10.37,2013-08-06 09:22:00,
2013-08-06 04:27:00,65.5,62.8,28.82,SW,225,4.6,4.6,91,0.00,CLR,,0.00,WeatherDisplay:10.37,2013-08-06 09:27:00,
2013-08-06 04:32:00,65.7,63.3,28.82,SW,225,3.5,3.5,92,0.00,CLR,,0.00,WeatherDisplay:10.37,2013-08-06 09:32:00,
2013-08-06 04:37:00,65.8,63.1,28.82,SW,225,2.3,2.3,91,0.00,CLR,,0.00,WeatherDisplay:10.37,2013-08-06 09:37:00,
2013-08-06 04:42:00,65.7,64.2,28.82,West,270,4.6,4.6,95,0.00,CLR,,0.00,WeatherDisplay:10.37,2013-08-06 09:42:00,
2013-08-06 04:47:00,65.8,63.1,28.82,NW,315,4.6,4.6,91,0.00,CLR,,0.00,WeatherDisplay:10.37,2013-08-06 09:47:00,
2013-08-06 04:52:00,65.8,63.1,28.83,West,270,1.6,0.0,91,0.00,CLR,,0.00,WeatherDisplay:10.37,2013-08-06 09:52:00,
2013-08-06 04:57:00,65.8,62.5,28.83,NW,315,2.3,0.0,89,0.00,CLR,,0.00,WeatherDisplay:10.37,2013-08-06 09:57:00,
2013-08-06 05:02:00,65.8,62.8,28.83,NNW,338,2.3,2.3,90,0.00,CLR,,0.00,WeatherDisplay:10.37,2013-08-06 10:02:00,
2013-08-06 05:07:00,65.8,62.8,28.82,NNW,338,2.3,2.3,90,0.00,CLR,,0.00,WeatherDisplay:10.37,2013-08-06 10:07:00,
2013-08-06 05:12:00,65.7,63.3,28.82,North,0,1.1,1.6,92,0.00,CLR,,0.00,WeatherDisplay:10.37,2013-08-06 10:12:00,
2013-08-06 05:13:00,65.7,63.3,28.82,NW,315,3.5,3.5,92,0.00,CLR,,0.00,WeatherDisplay:10.37,2013-08-06 10:13:00,
2013-08-06 05:18:00,65.7,63.9,28.82,West,270,2.3,2.3,94,0.00,CLR,,0.00,WeatherDisplay:10.37,2013-08-06 10:18:00,
2013-08-06 05:23:00,65.5,64.0,28.81,East,90,5.8,5.8,95,0.00,CLR,,0.00,WeatherDisplay:10.37,2013-08-06 10:23:00,
2013-08-06 05:28:00,65.7,63.9,28.81,NW,315,3.5,3.5,94,0.00,CLR,,0.00,WeatherDisplay:10.37,2013-08-06 10:28:00,
2013-08-06 05:33:00,65.7,65.1,28.82,North,0,3.5,3.5,98,0.00,CLR,,0.00,WeatherDisplay:10.37,2013-08-06 10:33:00,
2013-08-06 05:38:00,65.7,65.4,28.81,West,270,3.5,3.5,99,0.00,CLR,,0.00,WeatherDisplay:10.37,2013-08-06 10:38:00,
2013-08-06 05:43:00,65.5,65.2,28.82,North,0,1.1,1.1,99,0.00,CLR,,0.00,WeatherDisplay:10.37,2013-08-06 10:43:00,
2013-08-06 05:48:00,65.3,65.0,28.82,NW,315,5.8,5.8,99,0.00,CLR,,0.00,WeatherDisplay:10.37,2013-08-06 10:48:00,
2013-08-06 05:53:00,65.3,65.0,28.82,NW,315,5.8,5.8,99,0.00,CLR,,0.00,WeatherDisplay:10.37,2013-08-06 10:53:00,
2013-08-06 05:58:00,65.1,64.5,28.83,West,270,5.8,5.8,98,0.00,CLR,,0.00,WeatherDisplay:10.37,2013-08-06 10:58:00,
2013-08-06 06:03:00,65.1,64.2,28.83,North,0,8.1,8.1,97,0.00,CLR,,0.00,WeatherDisplay:10.37,2013-08-06 11:03:00,
2013-08-06 06:08:00,65.1,63.7,28.84,NW,315,15.0,15.0,95,0.00,CLR,,0.00,WeatherDisplay:10.37,2013-08-06 11:08:00,
2013-08-06 06:13:00,65.1,63.7,28.84,North,0,8.1,8.1,95,0.00,CLR,,0.00,WeatherDisplay:10.37,2013-08-06 11:13:00,
2013-08-06 06:18:00,65.1,63.7,28.84,NW,315,5.8,5.8,95,0.00,CLR,,0.00,WeatherDisplay:10.37,2013-08-06 11:18:00,
2013-08-06 06:23:00,65.1,63.3,28.84,North,0,3.5,3.5,94,0.00,CLR,,0.00,WeatherDisplay:10.37,2013-08-06 11:23:00,
2013-08-06 06:28:00,65.1,63.3,28.84,North,0,5.8,5.8,94,0.00,CLR,,0.00,WeatherDisplay:10.37,2013-08-06 11:28:00,
2013-08-06 06:33:00,65.1,63.3,28.84,West,270,3.5,3.5,94,0.00,CLR,,0.00,WeatherDisplay:10.37,2013-08-06 11:33:00,
2013-08-06 06:38:00,65.1,63.3,28.84,NW,315,3.5,3.5,94,0.00,CLR,,0.00,WeatherDisplay:10.37,2013-08-06 11:38:00,
2013-08-06 06:43:00,65.3,63.5,28.84,NW,315,2.3,2.3,94,0.00,CLR,,0.00,WeatherDisplay:10.37,2013-08-06 11:43:00,
2013-08-06 06:48:00,64.9,62.9,28.84,NW,315,5.8,5.8,93,0.00,CLR,,0.00,WeatherDisplay:10.37,2013-08-06 11:48:00,
2013-08-06 06:53:00,64.8,62.7,28.84,NW,315,1.1,0.0,93,0.00,CLR,,0.00,WeatherDisplay:10.37,2013-08-06 11:53:00,
2013-08-06 06:58:00,64.8,62.7,28.84,NW,315,3.5,3.5,93,0.00,CLR,,0.00,WeatherDisplay:10.37,2013-08-06 11:58:00,
2013-08-06 07:03:00,64.9,62.9,28.85,NW,315,3.5,0.0,93,0.00,CLR,,0.00,WeatherDisplay:10.37,2013-08-06 12:03:00,
2013-08-06 07:08:00,65.1,63.0,28.84,SW,225,3.5,3.5,93,0.00,CLR,,0.00,WeatherDisplay:10.37,2013-08-06 12:08:00,
2013-08-06 07:13:00,64.9,62.6,28.85,SW,225,1.6,0.0,92,0.00,CLR,,0.00,WeatherDisplay:10.37,2013-08-06 12:13:00,
2013-08-06 07:18:00,64.9,62.6,28.85,West,270,3.5,3.5,92,0.00,CLR,,0.00,WeatherDisplay:10.37,2013-08-06 12:18:00,
2013-08-06 07:23:00,64.8,62.4,28.85,NW,315,2.3,2.3,92,0.00,CLR,,0.00,WeatherDisplay:10.37,2013-08-06 12:23:00,
2013-08-06 07:28:00,64.8,62.4,28.86,NW,315,2.3,2.3,92,0.00,CLR,,0.00,WeatherDisplay:10.37,2013-08-06 12:28:00,
2013-08-06 07:33:00,65.5,62.8,28.85,NW,315,2.3,2.3,91,0.00,CLR,,0.00,WeatherDisplay:10.37,2013-08-06 12:33:00,
2013-08-06 07:38:00,66.4,62.4,28.86,NW,315,6.0,6.0,87,0.00,CLR,,0.00,WeatherDisplay:10.37,2013-08-06 12:38:00,
2013-08-06 07:43:00,67.1,62.4,28.86,NW,315,3.5,3.5,85,0.00,CLR,,0.00,WeatherDisplay:10.37,2013-08-06 12:43:00,
2013-08-06 07:48:00,68.2,62.5,28.85,North,0,4.6,4.6,82,0.00,CLR,,0.00,WeatherDisplay:10.37,2013-08-06 12:48:00,
2013-08-06 07:53:00,69.3,63.5,28.85,North,0,3.5,3.5,82,0.00,CLR,,0.00,WeatherDisplay:10.37,2013-08-06 12:53:00,
2013-08-06 07:58:00,70.3,63.5,28.85,South,180,1.1,0.0,79,0.00,CLR,,0.00,WeatherDisplay:10.37,2013-08-06 12:58:00,
2013-08-06 08:03:00,70.9,62.6,28.86,NW,315,4.5,4.5,75,0.00,CLR,,0.00,WeatherDisplay:10.37,2013-08-06 13:03:00,
2013-08-06 08:08:00,70.5,62.2,28.86,North,0,3.5,3.5,75,0.00,CLR,,0.00,WeatherDisplay:10.37,2013-08-06 13:08:00,
2013-08-06 08:13:00,69.4,60.8,28.86,NW,315,6.9,6.9,74,0.00,CLR,,0.00,WeatherDisplay:10.37,2013-08-06 13:13:00,
2013-08-06 08:18:00,68.7,60.8,28.86,NW,315,8.1,8.1,76,0.00,CLR,,0.00,WeatherDisplay:10.37,2013-08-06 13:18:00,
2013-08-06 08:23:00,68.0,60.9,28.85,North,0,3.5,3.5,78,0.00,CLR,,0.00,WeatherDisplay:10.37,2013-08-06 13:23:00,
2013-08-06 08:28:00,67.1,60.4,28.85,North,0,6.9,6.9,79,0.00,CLR,,0.00,WeatherDisplay:10.37,2013-08-06 13:28:00,
2013-08-06 08:33:00,67.1,61.1,28.86,West,270,5.8,5.8,81,0.00,CLR,,0.00,WeatherDisplay:10.37,2013-08-06 13:33:00,
2013-08-06 08:38:00,67.5,61.4,28.86,NW,315,3.5,3.5,81,0.00,CLR,,0.00,WeatherDisplay:10.37,2013-08-06 13:38:00,
2013-08-06 08:43:00,68.2,61.8,28.86,SW,225,3.5,3.5,80,0.00,CLR,,0.00,WeatherDisplay:10.37,2013-08-06 13:43:00,
2013-08-06 08:48:00,69.1,61.6,28.86,SW,225,3.5,3.5,77,0.00,CLR,,0.00,WeatherDisplay:10.37,2013-08-06 13:48:00,
2013-08-06 08:53:00,69.6,61.7,28.86,SW,225,4.6,0.0,76,0.00,CLR,,0.00,WeatherDisplay:10.37,2013-08-06 13:53:00,
2013-08-06 08:58:00,70.5,61.4,28.87,NW,315,2.3,0.0,73,0.00,CLR,,0.00,WeatherDisplay:10.37,2013-08-06 13:58:00,
2013-08-06 09:03:00,71.1,61.6,28.87,East,90,2.3,2.3,72,0.00,CLR,,0.00,WeatherDisplay:10.37,2013-08-06 14:03:00,
2013-08-06 09:08:00,70.9,60.2,28.87,West,270,6.9,6.9,69,0.00,CLR,,0.00,WeatherDisplay:10.37,2013-08-06 14:08:00,
2013-08-06 09:13:00,70.9,60.6,28.88,South,180,6.9,6.9,70,0.00,CLR,,0.00,WeatherDisplay:10.37,2013-08-06 14:13:00,
2013-08-06 09:18:00,71.2,60.5,28.87,NW,315,8.1,8.1,69,0.00,CLR,,0.00,WeatherDisplay:10.37,2013-08-06 14:18:00,
2013-08-06 09:23:00,70.2,60.7,28.87,NW,315,8.1,8.1,72,0.00,CLR,,0.00,WeatherDisplay:10.37,2013-08-06 14:23:00,
2013-08-06 09:28:00,69.8,60.4,28.87,North,0,4.6,4.6,72,0.00,CLR,,0.00,WeatherDisplay:10.37,2013-08-06 14:28:00,
2013-08-06 09:33:00,70.0,60.5,28.87,NW,315,5.8,5.8,72,0.00,CLR,,0.00,WeatherDisplay:10.37,2013-08-06 14:33:00,
2013-08-06 09:38:00,69.8,60.4,28.87,WNW,292,4.6,4.6,72,0.00,CLR,,0.00,WeatherDisplay:10.37,2013-08-06 14:38:00,
2013-08-06 09:43:00,70.3,60.9,28.87,WNW,292,3.5,3.5,72,0.00,CLR,,0.00,WeatherDisplay:10.37,2013-08-06 14:43:00,
2013-08-06 09:48:00,70.9,61.0,28.87,East,90,3.5,3.5,71,0.00,CLR,,0.00,WeatherDisplay:10.37,2013-08-06 14:48:00,
2013-08-06 09:53:00,70.7,60.4,28.87,NW,315,2.3,0.0,70,0.00,CLR,,0.00,WeatherDisplay:10.37,2013-08-06 14:53:00,
2013-08-06 09:58:00,70.5,60.7,28.87,SW,225,3.5,0.0,71,0.00,CLR,,0.00,WeatherDisplay:10.37,2013-08-06 14:58:00,
2013-08-06 10:03:00,70.3,61.3,28.87,SW,225,3.5,3.5,73,0.00,CLR,,0.00,WeatherDisplay:10.37,2013-08-06 15:03:00,
2013-08-06 10:08:00,70.9,61.0,28.87,NW,315,5.8,5.8,71,0.00,CLR,,0.00,WeatherDisplay:10.37,2013-08-06 15:08:00,
2013-08-06 10:13:00,70.2,60.3,28.86,West,270,5.8,5.8,71,0.00,CLR,,0.00,WeatherDisplay:10.37,2013-08-06 15:13:00,
2013-08-06 10:18:00,70.3,60.9,28.86,NW,315,2.3,2.3,72,0.00,CLR,,0.00,WeatherDisplay:10.37,2013-08-06 15:18:00,
2013-08-06 10:23:00,71.6,61.3,28.86,NW,315,3.5,3.5,70,0.00,CLR,,0.00,WeatherDisplay:10.37,2013-08-06 15:23:00,
2013-08-06 10:28:00,72.3,61.2,28.86,West,270,3.5,3.5,68,0.00,CLR,,0.00,WeatherDisplay:10.37,2013-08-06 15:28:00,
2013-08-06 10:33:00,72.7,60.7,28.87,NW,315,4.6,4.6,66,0.00,CLR,,0.00,WeatherDisplay:10.37,2013-08-06 15:33:00,
2013-08-06 10:38:00,73.0,61.0,28.87,SW,225,3.5,3.5,66,0.00,CLR,,0.00,WeatherDisplay:10.37,2013-08-06 15:38:00,
2013-08-06 10:43:00,72.5,60.9,28.87,SW,225,2.3,2.3,67,0.00,CLR,,0.00,WeatherDisplay:10.37,2013-08-06 15:43:00,
2013-08-06 10:48:00,72.9,61.3,28.87,NW,315,4.6,4.6,67,0.00,CLR,,0.00,WeatherDisplay:10.37,2013-08-06 15:48:00,
2013-08-06 10:53:00,73.8,61.3,28.87,NW,315,3.5,3.5,65,0.00,CLR,,0.00,WeatherDisplay:10.37,2013-08-06 15:53:00,
2013-08-06 10:58:00,74.7,62.1,28.87,NW,315,3.5,3.5,65,0.00,CLR,,0.00,WeatherDisplay:10.37,2013-08-06 15:58:00,
2013-08-06 11:03:00,75.0,61.6,28.87,West,270,3.5,3.5,63,0.00,CLR,,0.00,WeatherDisplay:10.37,2013-08-06 16:03:00,
2013-08-06 11:08:00,75.0,61.1,28.87,SW,225,4.6,4.6,62,0.00,CLR,,0.00,WeatherDisplay:10.37,2013-08-06 16:08:00,
2013-08-06 11:13:00,75.4,61.5,28.88,East,90,4.6,4.6,62,0.00,CLR,,0.00,WeatherDisplay:10.37,2013-08-06 16:13:00,
2013-08-06 11:18:00,75.7,60.9,28.88,West,270,4.6,4.6,60,0.00,CLR,,0.00,WeatherDisplay:10.37,2013-08-06 16:18:00,
2013-08-06 11:23:00,76.3,61.8,28.87,South,180,4.6,4.6,61,0.00,CLR,,0.00,WeatherDisplay:10.37,2013-08-06 16:23:00,
2013-08-06 11:28:00,75.4,61.5,28.87,West,270,3.5,3.5,62,0.00,CLR,,0.00,WeatherDisplay:10.37,2013-08-06 16:28:00,
2013-08-06 11:33:00,75.2,61.3,28.88,West,270,3.5,3.5,62,0.00,CLR,,0.00,WeatherDisplay:10.37,2013-08-06 16:33:00,
2013-08-06 11:38:00,74.7,60.3,28.87,NW,315,5.8,5.8,61,0.00,CLR,,0.00,WeatherDisplay:10.37,2013-08-06 16:38:00,
2013-08-06 11:43:00,74.7,60.3,28.87,South,180,3.5,3.5,61,0.00,CLR,,0.00,WeatherDisplay:10.37,2013-08-06 16:43:00,
2013-08-06 11:48:00,74.3,60.4,28.86,SW,225,6.9,6.9,62,0.00,CLR,,0.00,WeatherDisplay:10.37,2013-08-06 16:48:00,
2013-08-06 11:53:00,74.7,60.3,28.87,West,270,4.6,4.6,61,0.00,CLR,,0.00,WeatherDisplay:10.37,2013-08-06 16:53:00,
2013-08-06 11:58:00,74.7,59.9,28.87,North,0,4.6,4.6,60,0.00,CLR,,0.00,WeatherDisplay:10.37,2013-08-06 16:58:00,
2013-08-06 12:03:00,76.5,61.1,28.87,NW,315,3.5,3.5,59,0.00,CLR,,0.00,WeatherDisplay:10.37,2013-08-06 17:03:00,
2013-08-06 12:08:00,78.4,60.4,28.86,SW,225,3.5,3.5,54,0.00,CLR,,0.00,WeatherDisplay:10.37,2013-08-06 17:08:00,
2013-08-06 12:13:00,78.1,60.6,28.85,West,270,3.5,3.5,55,0.00,CLR,,0.00,WeatherDisplay:10.37,2013-08-06 17:13:00,
2013-08-06 12:18:00,79.7,61.1,28.85,West,270,2.3,2.3,53,0.00,CLR,,0.00,WeatherDisplay:10.37,2013-08-06 17:18:00,
2013-08-06 12:23:00,80.4,58.9,28.85,East,90,4.6,4.6,48,0.00,CLR,,0.00,WeatherDisplay:10.37,2013-08-06 17:23:00,
2013-08-06 12:27:00,80.1,59.7,28.85,West,270,3.5,0.0,50,0.00,CLR,,0.00,WeatherDisplay:10.37,2013-08-06 17:27:00,
2013-08-06 12:32:00,79.7,58.8,28.85,NW,315,4.6,4.6,49,0.00,CLR,,0.00,WeatherDisplay:10.37,2013-08-06 17:32:00,
2013-08-06 12:37:00,80.4,60.1,28.85,NW,315,4.6,4.6,50,0.00,CLR,,0.00,WeatherDisplay:10.37,2013-08-06 17:37:00,
2013-08-06 12:42:00,81.1,60.7,28.85,SE,135,2.3,2.3,50,0.00,CLR,,0.00,WeatherDisplay:10.37,2013-08-06 17:42:00,
2013-08-06 12:47:00,81.7,60.1,28.85,SW,225,3.5,3.5,48,0.00,CLR,,0.00,WeatherDisplay:10.37,2013-08-06 17:47:00,
2013-08-06 12:52:00,81.0,60.0,28.85,NW,315,3.5,0.0,49,0.00,CLR,,0.00,WeatherDisplay:10.37,2013-08-06 17:52:00,
2013-08-06 12:57:00,81.7,60.1,28.85,SW,225,3.5,3.5,48,0.00,CLR,,0.00,WeatherDisplay:10.37,2013-08-06 17:57:00,
2013-08-06 13:02:00,80.8,59.3,28.84,South,180,5.8,5.8,48,0.00,CLR,,0.00,WeatherDisplay:10.37,2013-08-06 18:02:00,
2013-08-06 13:07:00,80.4,60.1,28.84,West,270,4.6,4.6,50,0.00,CLR,,0.00,WeatherDisplay:10.37,2013-08-06 18:07:00,
2013-08-06 13:12:00,81.3,59.2,28.84,NW,315,3.5,3.5,47,0.00,CLR,,0.00,WeatherDisplay:10.37,2013-08-06 18:12:00,
2013-08-06 13:17:00,81.7,59.5,28.84,NW,315,2.3,2.3,47,0.00,CLR,,0.00,WeatherDisplay:10.37,2013-08-06 18:17:00,
2013-08-06 13:22:00,83.3,59.1,28.84,SE,135,3.5,3.5,44,0.00,CLR,,0.00,WeatherDisplay:10.37,2013-08-06 18:22:00,
2013-08-06 13:27:00,83.8,59.0,28.84,South,180,2.3,0.0,43,0.00,CLR,,0.00,WeatherDisplay:10.37,2013-08-06 18:27:00,
2013-08-06 13:32:00,84.7,57.0,28.83,NW,315,3.5,3.5,39,0.00,CLR,,0.00,WeatherDisplay:10.37,2013-08-06 18:32:00,
2013-08-06 13:37:00,84.4,58.8,28.84,East,90,3.5,3.5,42,0.00,CLR,,0.00,WeatherDisplay:10.37,2013-08-06 18:37:00,
2013-08-06 13:42:00,84.0,57.1,28.83,West,270,5.8,5.8,40,0.00,CLR,,0.00,WeatherDisplay:10.37,2013-08-06 18:42:00,
2013-08-06 13:47:00,81.7,57.0,28.84,NW,315,6.9,6.9,43,0.00,CLR,,0.00,WeatherDisplay:10.37,2013-08-06 18:47:00,
2013-08-06 13:52:00,82.0,57.3,28.83,West,270,8.1,8.1,43,0.00,CLR,,0.00,WeatherDisplay:10.37,2013-08-06 18:52:00,
2013-08-06 13:57:00,81.1,57.8,28.83,NW,315,5.8,5.8,45,0.00,CLR,,0.00,WeatherDisplay:10.37,2013-08-06 18:57:00,
2013-08-06 14:02:00,82.8,58.6,28.83,SW,225,2.3,2.3,44,0.00,CLR,,0.00,WeatherDisplay:10.37,2013-08-06 19:02:00,
2013-08-06 14:07:00,83.8,57.6,28.83,NE,45,5.8,5.8,41,0.00,CLR,,0.00,WeatherDisplay:10.37,2013-08-06 19:07:00,
2013-08-06 14:12:00,84.2,59.3,28.83,East,90,4.6,4.6,43,0.00,CLR,,0.00,WeatherDisplay:10.37,2013-08-06 19:12:00,
2013-08-06 14:17:00,83.8,57.6,28.83,North,0,8.1,8.1,41,0.00,CLR,,0.00,WeatherDisplay:10.37,2013-08-06 19:17:00,
2013-08-06 14:22:00,85.6,58.5,28.82,SW,225,2.3,2.3,40,0.00,CLR,,0.00,WeatherDisplay:10.37,2013-08-06 19:22:00,
2013-08-06 14:27:00,86.7,58.1,28.82,SW,225,2.3,2.3,38,0.00,CLR,,0.00,WeatherDisplay:10.37,2013-08-06 19:27:00,
2013-08-06 14:32:00,86.5,57.2,28.82,NW,315,3.5,3.5,37,0.00,CLR,,0.00,WeatherDisplay:10.37,2013-08-06 19:32:00,
2013-08-06 14:37:00,85.8,56.5,28.83,NW,315,8.1,8.1,37,0.00,CLR,,0.00,WeatherDisplay:10.37,2013-08-06 19:37:00,
2013-08-06 14:42:00,84.9,58.6,28.83,West,270,3.5,3.5,41,0.00,CLR,,0.00,WeatherDisplay:10.37,2013-08-06 19:42:00,
2013-08-06 14:47:00,85.5,59.1,28.82,North,0,3.5,3.5,41,0.00,CLR,,0.00,WeatherDisplay:10.37,2013-08-06 19:47:00,
2013-08-06 14:52:00,87.4,56.4,28.83,NW,315,3.5,3.5,35,0.00,CLR,,0.00,WeatherDisplay:10.37,2013-08-06 19:52:00,
2013-08-06 14:57:00,86.7,58.1,28.82,West,270,4.6,4.6,38,0.00,CLR,,0.00,WeatherDisplay:10.37,2013-08-06 19:57:00,
2013-08-06 15:02:00,85.1,59.4,28.82,SE,135,3.5,3.5,42,0.00,CLR,,0.00,WeatherDisplay:10.37,2013-08-06 20:02:00,
2013-08-06 15:07:00,84.2,57.9,28.82,NW,315,5.8,5.8,41,0.00,CLR,,0.00,WeatherDisplay:10.37,2013-08-06 20:07:00,
2013-08-06 15:12:00,84.4,59.4,28.83,SW,225,3.5,3.5,43,0.00,CLR,,0.00,WeatherDisplay:10.37,2013-08-06 20:12:00,
2013-08-06 15:17:00,84.4,58.1,28.83,NE,45,3.5,3.5,41,0.00,CLR,,0.00,WeatherDisplay:10.37,2013-08-06 20:17:00,
2013-08-06 15:22:00,83.3,57.1,28.83,West,270,8.1,8.1,41,0.00,CLR,,0.00,WeatherDisplay:10.37,2013-08-06 20:22:00,
2013-08-06 15:27:00,83.3,57.8,28.83,North,0,3.5,3.5,42,0.00,CLR,,0.00,WeatherDisplay:10.37,2013-08-06 20:27:00,
2013-08-06 15:32:00,84.0,57.8,28.83,North,0,3.5,3.5,41,0.00,CLR,,0.00,WeatherDisplay:10.37,2013-08-06 20:32:00,
2013-08-06 15:37:00,86.4,57.0,28.82,South,180,2.3,2.3,37,0.00,CLR,,0.00,WeatherDisplay:10.37,2013-08-06 20:37:00,
2013-08-06 15:42:00,88.0,56.1,28.82,NW,315,3.5,3.5,34,0.00,CLR,,0.00,WeatherDisplay:10.37,2013-08-06 20:42:00,
2013-08-06 15:47:00,87.8,55.9,28.82,West,270,5.8,5.8,34,0.00,CLR,,0.00,WeatherDisplay:10.37,2013-08-06 20:47:00,
2013-08-06 15:52:00,86.7,56.6,28.81,SE,135,2.3,2.3,36,0.00,CLR,,0.00,WeatherDisplay:10.37,2013-08-06 20:52:00,
2013-08-06 15:57:00,88.5,57.4,28.81,East,90,2.3,2.3,35,0.00,CLR,,0.00,WeatherDisplay:10.37,2013-08-06 20:57:00,
2013-08-06 16:02:00,89.1,57.0,28.81,East,90,2.3,2.3,34,0.00,CLR,,0.00,WeatherDisplay:10.37,2013-08-06 21:02:00,
2013-08-06 16:07:00,88.0,56.1,28.81,NE,45,3.5,3.5,34,0.00,CLR,,0.00,WeatherDisplay:10.37,2013-08-06 21:07:00,
2013-08-06 16:12:00,88.3,57.2,28.80,South,180,3.5,3.5,35,0.00,CLR,,0.00,WeatherDisplay:10.37,2013-08-06 21:12:00,
2013-08-06 16:17:00,86.5,61.4,28.80,South,180,7.6,7.6,43,0.00,CLR,,0.00,WeatherDisplay:10.37,2013-08-06 21:17:00,
2013-08-06 16:22:00,85.1,59.4,28.80,SSE,158,6.9,6.9,42,0.00,CLR,,0.00,WeatherDisplay:10.37,2013-08-06 21:22:00,
2013-08-06 16:27:00,85.8,58.7,28.80,SE,135,3.5,3.5,40,0.00,CLR,,0.00,WeatherDisplay:10.37,2013-08-06 21:27:00,
2013-08-06 16:32:00,86.5,59.3,28.80,South,180,4.6,4.6,40,0.00,CLR,,0.00,WeatherDisplay:10.37,2013-08-06 21:32:00,
2013-08-06 16:37:00,86.5,59.3,28.80,SE,135,3.5,3.5,40,0.00,CLR,,0.00,WeatherDisplay:10.37,2013-08-06 21:37:00,
2013-08-06 16:42:00,86.4,59.2,28.80,South,180,3.5,3.5,40,0.00,CLR,,0.00,WeatherDisplay:10.37,2013-08-06 21:42:00,
2013-08-06 16:47:00,84.7,59.1,28.80,SE,135,3.5,3.5,42,0.00,CLR,,0.00,WeatherDisplay:10.37,2013-08-06 21:47:00,
2013-08-06 16:52:00,84.0,59.1,28.79,SW,225,3.5,3.5,43,0.00,CLR,,0.00,WeatherDisplay:10.37,2013-08-06 21:52:00,
2013-08-06 16:57:00,84.7,59.8,28.79,SE,135,3.5,3.5,43,0.00,CLR,,0.00,WeatherDisplay:10.37,2013-08-06 21:57:00,
2013-08-06 17:02:00,84.9,59.3,28.79,SE,135,4.6,4.6,42,0.00,CLR,,0.00,WeatherDisplay:10.37,2013-08-06 22:02:00,
2013-08-06 17:07:00,84.2,59.9,28.79,East,90,3.5,3.5,44,0.00,CLR,,0.00,WeatherDisplay:10.37,2013-08-06 22:07:00,
2013-08-06 17:12:00,86.0,60.2,28.79,South,180,3.5,3.5,42,0.00,CLR,,0.00,WeatherDisplay:10.37,2013-08-06 22:12:00,
2013-08-06 17:17:00,86.9,61.0,28.78,SE,135,3.5,3.5,42,0.00,CLR,,0.00,WeatherDisplay:10.37,2013-08-06 22:17:00,
2013-08-06 17:22:00,86.0,60.9,28.78,SE,135,3.5,3.5,43,0.00,CLR,,0.00,WeatherDisplay:10.37,2013-08-06 22:22:00,
2013-08-06 17:27:00,86.4,61.9,28.78,SW,225,3.5,3.5,44,0.00,CLR,,0.00,WeatherDisplay:10.37,2013-08-06 22:27:00,
2013-08-06 17:32:00,85.8,62.6,28.78,SE,135,5.8,5.8,46,0.00,CLR,,0.00,WeatherDisplay:10.37,2013-08-06 22:32:00,
2013-08-06 17:37:00,86.9,63.6,28.78,South,180,3.5,3.5,46,0.00,CLR,,0.00,WeatherDisplay:10.37,2013-08-06 22:37:00,
2013-08-06 17:42:00,86.0,66.3,28.78,South,180,8.1,8.1,52,0.00,CLR,,0.00,WeatherDisplay:10.37,2013-08-06 22:42:00,
2013-08-06 17:47:00,84.6,66.6,28.78,South,180,8.1,8.1,55,0.00,CLR,,0.00,WeatherDisplay:10.37,2013-08-06 22:47:00,
2013-08-06 17:52:00,84.0,66.1,28.78,SE,135,9.2,9.2,55,0.00,CLR,,0.00,WeatherDisplay:10.37,2013-08-06 22:52:00,
2013-08-06 17:57:00,82.8,65.5,28.78,SW,225,11.5,11.5,56,0.00,CLR,,0.00,WeatherDisplay:10.37,2013-08-06 22:57:00,
2013-08-06 18:02:00,82.8,65.5,28.78,South,180,10.4,10.4,56,0.00,CLR,,0.00,WeatherDisplay:10.37,2013-08-06 23:02:00,
2013-08-06 18:07:00,82.6,65.3,28.78,SW,225,8.1,8.1,56,0.00,CLR,,0.00,WeatherDisplay:10.37,2013-08-06 23:07:00,
2013-08-06 18:12:00,83.5,66.1,28.78,South,180,4.6,4.6,56,0.00,CLR,,0.00,WeatherDisplay:10.37,2013-08-06 23:12:00,
2013-08-06 18:17:00,83.3,66.0,28.79,South,180,3.5,3.5,56,0.00,CLR,,0.00,WeatherDisplay:10.37,2013-08-06 23:17:00,
2013-08-06 18:22:00,83.5,65.6,28.78,SW,225,15.0,15.0,55,0.00,CLR,,0.00,WeatherDisplay:10.37,2013-08-06 23:22:00,
2013-08-06 18:27:00,83.3,66.0,28.78,SW,225,18.4,18.4,56,0.00,CLR,,0.00,WeatherDisplay:10.37,2013-08-06 23:27:00,
2013-08-06 18:32:00,83.1,66.3,28.78,SW,225,9.2,9.2,57,0.00,CLR,,0.00,WeatherDisplay:10.37,2013-08-06 23:32:00,
2013-08-06 18:37:00,82.6,66.3,28.77,SW,225,10.4,10.4,58,0.00,CLR,,0.00,WeatherDisplay:10.37,2013-08-06 23:37:00,
2013-08-06 18:42:00,82.4,65.6,28.77,South,180,15.0,15.0,57,0.00,CLR,,0.00,WeatherDisplay:10.37,2013-08-06 23:42:00,
2013-08-06 18:47:00,81.9,66.6,28.77,South,180,11.5,11.5,60,0.00,CLR,,0.00,WeatherDisplay:10.37,2013-08-06 23:47:00,
2013-08-06 18:52:00,82.4,67.1,28.77,South,180,11.5,11.5,60,0.00,CLR,,0.00,WeatherDisplay:10.37,2013-08-06 23:52:00,
2013-08-06 18:57:00,81.3,67.1,28.76,South,180,11.5,11.5,62,0.00,CLR,,0.00,WeatherDisplay:10.37,2013-08-06 23:57:00,
2013-08-06 19:02:00,80.4,67.1,28.75,South,180,12.7,12.7,64,0.00,CLR,,0.00,WeatherDisplay:10.37,2013-08-07 00:02:00,
2013-08-06 19:07:00,80.1,66.8,28.75,SW,225,12.7,12.7,64,0.00,CLR,,0.00,WeatherDisplay:10.37,2013-08-07 00:07:00,
2013-08-06 19:12:00,80.1,66.8,28.75,South,180,9.2,9.2,64,0.00,CLR,,0.00,WeatherDisplay:10.37,2013-08-07 00:12:00,
2013-08-06 19:17:00,80.1,66.8,28.75,SW,225,9.2,9.2,64,0.00,CLR,,0.00,WeatherDisplay:10.37,2013-08-07 00:17:00,
2013-08-06 19:22:00,79.7,67.8,28.74,South,180,9.2,9.2,67,0.00,CLR,,0.00,WeatherDisplay:10.37,2013-08-07 00:22:00,
2013-08-06 19:27:00,79.3,68.7,28.75,SW,225,8.1,8.1,70,0.00,CLR,,0.00,WeatherDisplay:10.37,2013-08-07 00:27:00,
2013-08-06 19:32:00,79.2,68.1,28.75,SW,225,9.2,9.2,69,0.00,CLR,,0.00,WeatherDisplay:10.37,2013-08-07 00:32:00,
2013-08-06 19:37:00,79.2,67.7,28.75,SW,225,8.1,8.1,68,0.00,CLR,,0.00,WeatherDisplay:10.37,2013-08-07 00:37:00,
2013-08-06 19:42:00,79.2,67.3,28.75,SW,225,8.1,8.1,67,0.00,CLR,,0.00,WeatherDisplay:10.37,2013-08-07 00:42:00,
2013-08-06 19:47:00,79.0,67.9,28.75,South,180,8.1,8.1,69,0.00,CLR,,0.00,WeatherDisplay:10.37,2013-08-07 00:47:00,
2013-08-06 19:52:00,78.6,68.0,28.75,South,180,9.2,9.2,70,0.00,CLR,,0.00,WeatherDisplay:10.37,2013-08-07 00:52:00,
2013-08-06 19:57:00,78.4,68.3,28.74,South,180,8.3,8.3,71,0.00,CLR,,0.00,WeatherDisplay:10.37,2013-08-07 00:57:00,
2013-08-06 20:02:00,78.3,68.5,28.75,South,180,8.1,8.1,72,0.00,CLR,,0.00,WeatherDisplay:10.37,2013-08-07 01:02:00,
2013-08-06 20:07:00,78.3,68.5,28.74,South,180,10.4,10.4,72,0.00,CLR,,0.00,WeatherDisplay:10.37,2013-08-07 01:07:00,
2013-08-06 20:12:00,78.1,69.1,28.74,South,180,9.2,9.2,74,0.00,CLR,,0.00,WeatherDisplay:10.37,2013-08-07 01:12:00,
2013-08-06 20:17:00,78.1,69.1,28.74,South,180,8.1,8.1,74,0.00,CLR,,0.00,WeatherDisplay:10.37,2013-08-07 01:17:00,
2013-08-06 20:22:00,78.1,69.5,28.74,South,180,8.1,8.1,75,0.00,CLR,,0.00,WeatherDisplay:10.37,2013-08-07 01:22:00,
2013-08-06 20:27:00,77.7,68.8,28.74,South,180,8.1,8.1,74,0.00,CLR,,0.00,WeatherDisplay:10.37,2013-08-07 01:27:00,
2013-08-06 20:32:00,77.7,68.8,28.74,South,180,8.1,8.1,74,0.00,CLR,,0.00,WeatherDisplay:10.37,2013-08-07 01:32:00,
2013-08-06 20:37:00,77.7,68.8,28.73,South,180,8.1,8.1,74,0.00,CLR,,0.00,WeatherDisplay:10.37,2013-08-07 01:37:00,
2013-08-06 20:42:00,77.7,68.4,28.74,SW,225,6.9,6.9,73,0.00,CLR,,0.00,WeatherDisplay:10.37,2013-08-07 01:42:00,
2013-08-06 20:47:00,77.5,67.8,28.75,South,180,6.9,6.9,72,0.00,CLR,,0.00,WeatherDisplay:10.37,2013-08-07 01:47:00,
2013-08-06 20:52:00,77.4,67.6,28.75,South,180,8.1,8.1,72,0.00,CLR,,0.00,WeatherDisplay:10.37,2013-08-07 01:52:00,
2013-08-06 20:57:00,77.2,67.9,28.75,SW,225,5.8,5.8,73,0.00,CLR,,0.00,WeatherDisplay:10.37,2013-08-07 01:57:00,
2013-08-06 21:02:00,77.0,68.1,28.75,SW,225,9.2,9.2,74,0.00,CLR,,0.00,WeatherDisplay:10.37,2013-08-07 02:02:00,
2013-08-06 21:07:00,76.8,67.9,28.75,SW,225,10.4,10.4,74,0.00,CLR,,0.00,WeatherDisplay:10.37,2013-08-07 02:07:00,
2013-08-06 21:12:00,76.6,67.7,28.75,SW,225,9.2,9.2,74,0.00,CLR,,0.00,WeatherDisplay:10.37,2013-08-07 02:12:00,
2013-08-06 21:17:00,76.6,68.1,28.75,South,180,8.1,8.1,75,0.00,CLR,,0.00,WeatherDisplay:10.37,2013-08-07 02:17:00,
2013-08-06 21:22:00,76.3,67.8,28.75,SW,225,10.4,10.4,75,0.00,CLR,,0.00,WeatherDisplay:10.37,2013-08-07 02:22:00,
2013-08-06 21:27:00,75.9,68.2,28.75,SW,225,6.0,6.0,77,0.00,CLR,,0.00,WeatherDisplay:10.37,2013-08-07 02:27:00,
2013-08-06 21:32:00,75.6,68.2,28.75,SW,225,5.8,6.0,78,0.00,CLR,,0.00,WeatherDisplay:10.37,2013-08-07 02:32:00,
2013-08-06 21:37:00,75.0,68.1,28.74,SW,225,15.0,15.0,79,0.00,CLR,,0.00,WeatherDisplay:10.37,2013-08-07 02:37:00,
2013-08-06 21:42:00,74.7,67.7,28.73,SW,225,15.0,15.0,79,0.02,RA,,0.02,WeatherDisplay:10.37,2013-08-07 02:42:00,
2013-08-06 21:47:00,74.5,68.6,28.74,SSE,158,15.0,15.0,82,0.02,RA,,0.02,WeatherDisplay:10.37,2013-08-07 02:47:00,
2013-08-06 21:52:00,73.9,68.4,28.75,SW,225,12.7,12.7,83,0.02,CLR,,0.02,WeatherDisplay:10.37,2013-08-07 02:52:00,
2013-08-06 21:57:00,73.8,69.0,28.79,West,270,5.8,5.8,85,0.02,CLR,,0.02,WeatherDisplay:10.37,2013-08-07 02:57:00,
2013-08-06 22:02:00,73.2,67.4,28.86,WNW,292,27.6,27.6,82,0.06,RA,,0.06,WeatherDisplay:10.37,2013-08-07 03:02:00,
2013-08-06 22:07:00,66.6,61.2,28.87,NW,315,39.1,39.1,83,0.13,RA,,0.24,WeatherDisplay:10.37,2013-08-07 03:07:00,
2013-08-06 22:12:00,63.7,61.0,28.87,NE,45,18.4,18.4,91,0.30,RA,,0.30,WeatherDisplay:10.37,2013-08-07 03:12:00,
2013-08-06 22:17:00,64.4,62.6,28.85,NW,315,13.8,13.8,94,0.32,RA,,0.34,WeatherDisplay:10.37,2013-08-07 03:17:00,
2013-08-06 22:22:00,62.2,60.8,28.84,NW,315,12.7,12.7,95,0.35,RA,,0.37,WeatherDisplay:10.37,2013-08-07 03:22:00,
2013-08-06 22:27:00,62.1,60.6,28.81,NE,45,4.6,4.6,95,0.37,RA,,0.37,WeatherDisplay:10.37,2013-08-07 03:27:00,
2013-08-06 22:32:00,61.9,60.7,28.77,NE,45,5.8,5.8,96,0.37,RA,,0.38,WeatherDisplay:10.37,2013-08-07 03:32:00,
2013-08-06 22:37:00,61.9,60.7,28.75,NE,45,10.4,10.4,96,0.38,RA,,0.38,WeatherDisplay:10.37,2013-08-07 03:37:00,
2013-08-06 22:42:00,61.7,60.5,28.74,East,90,6.9,6.9,96,0.35,RA,,0.38,WeatherDisplay:10.37,2013-08-07 03:42:00,
2013-08-06 22:47:00,61.5,60.4,28.74,East,90,4.6,4.6,96,0.35,CLR,,0.38,WeatherDisplay:10.37,2013-08-07 03:47:00,
2013-08-06 22:52:00,61.5,60.7,28.74,South,180,6.0,6.0,97,0.35,CLR,,0.38,WeatherDisplay:10.37,2013-08-07 03:52:00,
2013-08-06 22:57:00,61.5,60.4,28.75,NE,45,3.5,3.5,96,0.35,CLR,,0.38,WeatherDisplay:10.37,2013-08-07 03:57:00,
2013-08-06 23:01:00,61.7,60.8,28.76,West,270,4.6,4.6,97,0.34,CLR,,0.38,WeatherDisplay:10.37,2013-08-07 04:01:00,
2013-08-06 23:06:00,61.7,59.7,28.76,NW,315,3.5,3.5,93,0.30,CLR,,0.38,WeatherDisplay:10.37,2013-08-07 04:06:00,
2013-08-06 23:11:00,61.5,59.5,28.77,SW,225,3.5,3.5,93,0.09,CLR,,0.38,WeatherDisplay:10.37,2013-08-07 04:11:00,
2013-08-06 23:16:00,61.7,59.7,28.77,SW,225,2.3,2.3,93,0.06,CLR,,0.38,WeatherDisplay:10.37,2013-08-07 04:16:00,
2013-08-06 23:21:00,62.1,60.3,28.78,West,270,3.5,0.0,94,0.02,CLR,,0.38,WeatherDisplay:10.37,2013-08-07 04:21:00,
2013-08-06 23:26:00,62.2,60.5,28.79,North,0,2.3,2.3,94,0.01,CLR,,0.38,WeatherDisplay:10.37,2013-08-07 04:26:00,
2013-08-06 23:31:00,62.4,58.5,28.78,SW,225,3.5,3.5,87,0.01,CLR,,0.38,WeatherDisplay:10.37,2013-08-07 04:31:00,
2013-08-06 23:36:00,62.6,59.9,28.79,NW,315,5.8,5.8,91,0.00,CLR,,0.38,WeatherDisplay:10.37,2013-08-07 04:36:00,
2013-08-06 23:41:00,62.4,59.8,28.80,West,270,5.8,5.8,91,0.00,CLR,,0.38,WeatherDisplay:10.37,2013-08-07 04:41:00,
2013-08-06 23:46:00,62.4,59.1,28.79,South,180,5.8,5.8,89,0.00,CLR,,0.38,WeatherDisplay:10.37,2013-08-07 04:46:00,
2013-08-06 23:51:00,62.4,59.1,28.80,South,180,4.6,4.6,89,0.00,CLR,,0.38,WeatherDisplay:10.37,2013-08-07 04:51:00,
2013-08-06 23:56:00,62.2,59.6,28.79,SW,225,4.6,4.6,91,0.00,CLR,,0.38,WeatherDisplay:10.37,2013-08-07 04:56:00,